Time;durP1;ratioP1;P1;durP2;ratioP2;P2;SDS_P1;SDS_P2;PMS_P1;PMS_P2;Temp;Humidity;BMP_temperature;BMP_pressure;BME280_temperature;BME280_humidity;BME280_pressure;Samples;Min_cycle;Max_cycle;Signal;HPM_P1;HPM_P2
2023/10/15 00:00:15;;;;;;;5.25;1.38;;;;;;;16.68;44.70;101605.00;4953527;29;20077;-56
2023/10/15 00:02:48;;;;;;;2.05;1.08;;;;;;;16.67;44.77;101603.28;4953250;29;20518;-57
2023/10/15 00:05:15;;;;;;;4.03;1.20;;;;;;;16.65;44.19;101603.44;4955036;28;20031;-56
2023/10/15 00:07:41;;;;;;;1.98;1.10;;;;;;;16.62;45.31;101606.44;4953105;29;20058;-57
2023/10/15 00:10:09;;;;;;;5.05;0.98;;;;;;;16.60;45.37;101605.75;4953371;29;20412;-56
2023/10/15 00:12:35;;;;;;;7.35;1.98;;;;;;;16.62;44.30;101608.28;4921732;29;20030;-56
2023/10/15 00:15:00;;;;;;;2.15;1.30;;;;;;;16.61;45.02;101607.44;4953596;29;20057;-56
2023/10/15 00:17:27;;;;;;;4.72;1.50;;;;;;;16.60;43.81;101608.44;4953221;29;20031;-56
2023/10/15 00:19:53;;;;;;;3.63;1.30;;;;;;;16.59;44.45;101600.47;4953388;29;20035;-57
2023/10/15 00:22:18;;;;;;;8.32;1.05;;;;;;;16.60;45.24;101605.75;4954097;28;20491;-56
2023/10/15 00:24:44;;;;;;;6.78;1.33;;;;;;;16.61;45.13;101606.59;4955461;28;20035;-56
2023/10/15 00:27:09;;;;;;;5.57;1.63;;;;;;;16.60;44.65;101608.44;4954812;28;20039;-56
2023/10/15 00:29:35;;;;;;;5.90;1.75;;;;;;;16.61;45.10;101612.00;4956103;28;20099;-56
2023/10/15 00:32:00;;;;;;;10.95;1.60;;;;;;;16.61;44.44;101604.72;4928333;29;20066;-57
2023/10/15 00:34:26;;;;;;;2.10;1.27;;;;;;;16.61;44.73;101604.72;4957949;28;20035;-56
2023/10/15 00:36:52;;;;;;;4.85;1.10;;;;;;;16.59;45.26;101597.75;4958961;29;20043;-56
2023/10/15 00:39:21;;;;;;;2.38;1.02;;;;;;;16.56;44.55;101604.31;4958746;29;20514;-56
2023/10/15 00:41:50;;;;;;;6.55;2.80;;;;;;;16.55;45.20;101610.75;4958425;29;20040;-56
2023/10/15 00:44:16;;;;;;;3.22;1.48;;;;;;;16.53;44.93;101604.63;4958594;29;20057;-56
2023/10/15 00:46:45;;;;;;;3.90;1.02;;;;;;;16.54;44.98;101609.03;4926857;29;20053;-56
2023/10/15 00:49:12;;;;;;;2.17;1.10;;;;;;;16.53;44.30;101603.72;4958432;29;20047;-56
2023/10/15 00:51:44;;;;;;;5.70;1.42;;;;;;;16.50;44.72;101604.88;4957167;29;20038;-56
2023/10/15 00:54:14;;;;;;;3.15;1.17;;;;;;;16.50;45.23;101604.06;4958702;29;20034;-56
2023/10/15 00:56:41;;;;;;;3.03;1.45;;;;;;;16.47;44.46;101599.75;4958122;29;20450;-56
2023/10/15 01:01:38;;;;;;;3.30;1.13;;;;;;;16.46;44.10;101608.03;4959421;28;20038;-56
2023/10/15 01:04:06;;;;;;;2.95;1.30;;;;;;;16.45;44.70;101607.19;4957716;29;20410;-56
2023/10/15 01:06:38;;;;;;;5.10;1.77;;;;;;;16.42;45.28;101607.47;4957700;28;20032;-56
2023/10/15 01:09:17;;;;;;;6.30;1.38;;;;;;;16.40;45.08;101598.66;4941129;29;20046;-57
2023/10/15 01:11:44;;;;;;;3.35;1.10;;;;;;;16.38;45.44;101608.78;4956463;29;20058;-57
2023/10/15 01:14:13;;;;;;;9.25;1.70;;;;;;;16.33;44.79;101596.72;4957592;28;20041;-56
2023/10/15 01:16:39;;;;;;;7.50;2.38;;;;;;;16.36;44.17;101601.81;4957513;28;20039;-56
2023/10/15 01:19:31;;;;;;;4.40;1.27;;;;;;;16.33;45.02;101596.72;4940406;29;20035;-56
2023/10/15 01:21:57;;;;;;;4.72;1.17;;;;;;;16.30;45.18;101587.88;4958454;28;20051;-57
2023/10/15 01:24:25;;;;;;;8.52;1.70;;;;;;;16.29;45.06;101588.03;4928692;28;20093;-62
2023/10/15 01:27:32;;;;;;;5.65;1.02;;;;;;;16.27;44.41;101587.34;4959874;28;20059;-57
2023/10/15 01:29:44;;;;;;;3.30;1.27;;;;;;;16.25;45.12;101584.75;4951399;28;20131;-56
2023/10/15 01:32:13;;;;;;;4.18;1.48;;;;;;;16.26;44.95;101599.13;4955124;29;20039;-57
2023/10/15 01:34:45;;;;;;;5.97;1.73;;;;;;;16.27;44.74;101606.25;4940355;29;20392;-57
2023/10/15 01:39:49;;;;;;;8.95;1.60;;;;;;;16.24;45.95;101595.75;4955839;29;20115;-56
2023/10/15 01:42:34;;;;;;;4.97;2.05;;;;;;;16.26;45.39;101591.03;4943297;28;20042;-56
2023/10/15 01:45:13;;;;;;;6.82;1.23;;;;;;;16.25;44.61;101590.16;4961527;28;20122;-56
2023/10/15 01:50:31;;;;;;;4.35;1.77;;;;;;;16.24;45.19;101585.78;4977135;28;20108;-56
2023/10/15 01:53:04;;;;;;;6.18;1.30;;;;;;;16.23;45.52;101596.72;4930476;28;20027;-57
2023/10/15 01:55:30;;;;;;;4.28;1.30;;;;;;;16.20;45.99;101591.59;4943419;28;20055;-56
2023/10/15 01:58:03;;;;;;;4.85;1.48;;;;;;;16.21;45.64;101598.72;4958995;28;20061;-56
2023/10/15 02:03:00;;;;;;;3.15;1.10;;;;;;;16.22;45.18;101611.22;4959387;28;20097;-57
2023/10/15 02:05:29;;;;;;;3.92;1.13;;;;;;;16.23;45.18;101603.00;4958461;28;20031;-57
2023/10/15 02:07:57;;;;;;;4.45;1.85;;;;;;;16.26;45.16;101604.53;4959172;28;20041;-57
2023/10/15 02:10:23;;;;;;;3.00;1.25;;;;;;;16.27;45.73;101614.38;4959024;28;20050;-57
2023/10/15 02:12:59;;;;;;;3.88;1.35;;;;;;;16.26;45.03;101601.84;4942493;28;20038;-56
2023/10/15 02:15:25;;;;;;;6.18;1.70;;;;;;;16.25;44.83;101589.31;4958559;28;20155;-57
2023/10/15 02:17:52;;;;;;;4.32;1.23;;;;;;;16.30;46.15;101603.25;4958465;28;20035;-57
2023/10/15 02:20:26;;;;;;;3.85;1.10;;;;;;;16.31;45.04;101604.94;4958848;28;20027;-57
2023/10/15 02:22:53;;;;;;;3.03;1.45;;;;;;;16.33;45.32;101602.97;4959467;28;20507;-56
2023/10/15 02:25:22;;;;;;;3.67;1.92;;;;;;;16.30;46.07;101598.69;4942574;28;20509;-57
2023/10/15 02:27:48;;;;;;;4.57;1.58;;;;;;;16.33;45.29;101602.97;4943284;28;20053;-57
2023/10/15 02:30:13;;;;;;;6.50;1.52;;;;;;;16.33;45.47;101602.97;4958412;28;20118;-56
2023/10/15 02:32:42;;;;;;;4.90;1.30;;;;;;;16.37;44.90;101598.09;4975231;28;20030;-56
2023/10/15 02:35:12;;;;;;;4.00;1.83;;;;;;;16.39;45.75;101607.75;4942747;28;20050;-57
2023/10/15 02:37:40;;;;;;;8.20;1.70;;;;;;;16.40;46.07;101604.06;4957922;28;20039;-56
2023/10/15 02:40:16;;;;;;;8.57;1.30;;;;;;;16.39;44.50;101586.13;4956066;28;20049;-57
2023/10/15 02:42:52;;;;;;;6.97;1.10;;;;;;;16.44;45.91;101594.69;4923897;29;20523;-57
2023/10/15 02:45:18;;;;;;;4.75;1.40;;;;;;;16.45;45.60;101601.78;4938735;29;20062;-56
2023/10/15 02:47:48;;;;;;;6.75;1.52;;;;;;;16.46;46.15;101603.50;4938930;29;20566;-57
2023/10/15 02:50:18;;;;;;;2.08;1.20;;;;;;;16.47;44.47;101607.06;4938663;29;20090;-56
2023/10/15 02:52:44;;;;;;;4.25;0.98;;;;;;;16.46;44.76;101603.50;4955643;29;20042;-56
2023/10/15 02:55:14;;;;;;;3.88;1.08;;;;;;;16.48;44.77;101606.88;4938508;29;20035;-56
2023/10/15 02:57:43;;;;;;;8.82;1.27;;;;;;;16.44;45.12;101594.69;4937831;29;20407;-57
2023/10/15 03:00:28;;;;;;;6.40;0.95;;;;;;;16.44;45.11;101602.78;4938607;29;20031;-56
2023/10/15 03:02:54;;;;;;;3.47;1.38;;;;;;;16.48;44.51;101606.88;4940992;29;20033;-57
2023/10/15 03:05:25;;;;;;;8.85;1.70;;;;;;;16.48;45.55;101604.19;4938496;29;20059;-56
2023/10/15 03:07:51;;;;;;;9.43;1.50;;;;;;;16.48;45.57;101601.47;4939130;29;20076;-56
2023/10/15 03:10:22;;;;;;;3.08;1.50;;;;;;;16.48;44.85;101606.88;4922333;29;20081;-56
2023/10/15 03:12:50;;;;;;;3.85;1.35;;;;;;;16.45;44.42;101607.19;4938956;29;20042;-57
2023/10/15 03:15:20;;;;;;;2.33;1.00;;;;;;;16.47;44.53;101615.16;4938217;29;20034;-56
2023/10/15 03:17:46;;;;;;;8.50;1.52;;;;;;;16.45;45.52;101609.88;4938823;29;20426;-57
2023/10/15 03:22:51;;;;;;;;;;;;;;;16.47;44.74;101616.00;4955927;29;20043;-56
2023/10/15 03:25:18;;;;;;;2.23;1.17;;;;;;;16.46;44.77;101614.31;4922925;29;19993;-56
2023/10/15 03:27:46;;;;;;;4.57;1.13;;;;;;;16.44;46.00;101612.75;4937322;29;20289;-56
2023/10/15 03:30:13;;;;;;;2.63;0.85;;;;;;;16.42;45.61;101612.88;4923250;29;20031;-56
2023/10/15 03:32:45;;;;;;;1.77;0.70;;;;;;;16.40;45.02;101604.06;4908642;29;20416;-56
2023/10/15 03:35:18;;;;;;;4.13;0.70;;;;;;;16.39;45.74;101605.06;4928501;29;20439;-56
2023/10/15 03:37:47;;;;;;;5.75;1.00;;;;;;;16.38;44.33;101611.50;4955299;28;20039;-57
2023/10/15 03:43:15;;;;;;;4.95;0.88;;;;;;;16.39;45.53;101615.88;4941384;29;20118;-56
2023/10/15 03:45:53;;;;;;;3.17;1.02;;;;;;;16.43;44.68;101620.00;4940872;29;20031;-56
2023/10/15 03:48:28;;;;;;;2.78;0.68;;;;;;;16.42;45.21;101612.88;4939109;29;20039;-56
2023/10/15 03:50:53;;;;;;;4.38;0.95;;;;;;;16.43;44.62;101619.16;4938613;29;20036;-56
2023/10/15 03:53:27;;;;;;;4.60;1.10;;;;;;;16.43;45.32;101609.19;4954844;29;20038;-57
2023/10/15 03:55:56;;;;;;;4.00;0.73;;;;;;;16.38;44.53;101597.97;4954727;29;20114;-56
2023/10/15 03:58:22;;;;;;;4.13;1.00;;;;;;;16.37;45.45;101607.06;4937715;29;20518;-56
2023/10/15 04:00:55;;;;;;;3.08;1.00;;;;;;;16.37;44.72;101620.59;4906482;29;20122;-57
2023/10/15 04:03:35;;;;;;;4.50;0.88;;;;;;;16.31;45.10;101611.22;4938410;29;20031;-56
2023/10/15 04:06:01;;;;;;;3.03;1.35;;;;;;;16.29;44.91;101617.78;4954418;29;20036;-56
2023/10/15 04:08:31;;;;;;;5.03;0.75;;;;;;;16.29;45.72;101617.78;4912146;29;20034;-56
2023/10/15 04:10:57;;;;;;;5.13;0.90;;;;;;;16.24;45.57;101603.84;4911674;29;20027;-57
2023/10/15 04:13:22;;;;;;;0.60;0.38;;;;;;;16.22;45.38;101601.28;4925607;29;20027;-56
2023/10/15 04:15:49;;;;;;;3.10;1.00;;;;;;;16.20;45.71;101607.81;4941848;29;20023;-57
2023/10/15 04:18:14;;;;;;;1.13;0.60;;;;;;;16.18;45.31;101615.25;4941193;29;20039;-57
2023/10/15 04:20:42;;;;;;;3.35;0.85;;;;;;;16.15;45.59;101610.97;4958530;29;20039;-56
2023/10/15 04:23:13;;;;;;;1.70;0.85;;;;;;;16.12;45.09;101611.28;4941127;29;20032;-56
2023/10/15 04:25:39;;;;;;;3.90;1.13;;;;;;;16.11;44.96;101608.69;4941925;29;20050;-57
2023/10/15 04:28:14;;;;;;;1.20;0.75;;;;;;;16.10;44.83;101623.22;4958479;29;20058;-56
2023/10/15 04:30:40;;;;;;;2.80;1.10;;;;;;;16.07;45.74;101618.13;4942576;29;20487;-57
2023/10/15 04:33:15;;;;;;;1.52;0.75;;;;;;;16.08;44.39;101614.44;4958396;29;20035;-56
2023/10/15 04:35:41;;;;;;;1.02;0.68;;;;;;;16.07;45.60;101623.53;4942371;29;20530;-56
2023/10/15 04:38:15;;;;;;;2.80;0.52;;;;;;;16.07;44.67;101618.97;4958548;28;20086;-56
2023/10/15 04:40:59;;;;;;;3.95;0.60;;;;;;;16.08;45.05;101614.44;4958192;28;20043;-56
2023/10/15 04:43:25;;;;;;;2.03;0.60;;;;;;;16.09;45.85;101627.78;4940742;29;20059;-56
2023/10/15 04:45:54;;;;;;;0.73;0.40;;;;;;;16.09;45.76;101621.50;4958199;29;20118;-56
2023/10/15 04:48:26;;;;;;;3.58;1.02;;;;;;;16.08;44.52;101619.84;4941038;29;20519;-56
2023/10/15 04:50:52;;;;;;;6.57;0.90;;;;;;;16.05;45.98;101620.94;4941852;29;20039;-57
2023/10/15 04:55:51;;;;;;;4.28;0.88;;;;;;;16.02;46.02;101612.28;4941121;29;20055;-56
2023/10/15 04:58:17;;;;;;;3.90;0.80;;;;;;;16.01;45.33;101614.13;4908550;29;20039;-57
2023/10/15 05:00:45;;;;;;;5.05;0.90;;;;;;;16.00;44.88;101619.66;4940487;29;20110;-56
2023/10/15 05:03:11;;;;;;;5.40;0.85;;;;;;;15.96;44.63;101620.97;4940683;29;20035;-56
2023/10/15 05:05:37;;;;;;;1.17;0.70;;;;;;;15.95;46.06;101621.97;4940514;29;20119;-57
2023/10/15 05:08:03;;;;;;;2.15;1.05;;;;;;;15.94;45.36;101634.63;4924625;29;20122;-57
2023/10/15 05:10:34;;;;;;;8.65;1.15;;;;;;;15.95;45.83;101647.13;4924683;29;20035;-57
2023/10/15 05:13:01;;;;;;;2.58;0.63;;;;;;;15.95;45.31;101651.69;4940516;29;20073;-56
2023/10/15 05:15:27;;;;;;;4.80;0.88;;;;;;;15.94;45.03;101656.22;4940622;29;20059;-56
2023/10/15 05:17:52;;;;;;;2.25;0.70;;;;;;;15.94;45.80;101661.63;4940454;29;20114;-56
2023/10/15 05:20:20;;;;;;;2.20;0.60;;;;;;;15.92;45.22;101660.06;4939309;29;20040;-56
2023/10/15 05:22:47;;;;;;;1.75;0.50;;;;;;;15.91;45.60;101653.00;4909584;29;20035;-56
2023/10/15 05:25:20;;;;;;;1.23;0.70;;;;;;;15.89;46.09;101645.00;4940453;29;20094;-56
2023/10/15 05:27:45;;;;;;;3.90;0.80;;;;;;;15.89;45.42;101642.31;4957307;29;20039;-56
2023/10/15 05:30:12;;;;;;;5.03;0.60;;;;;;;15.90;45.33;101643.16;4940330;29;20083;-56
2023/10/15 05:32:38;;;;;;;2.05;0.57;;;;;;;15.92;46.52;101657.38;4956633;29;20110;-56
2023/10/15 05:35:08;;;;;;;0.63;0.47;;;;;;;15.96;46.67;101658.81;4924341;29;20531;-57
2023/10/15 05:37:36;;;;;;;1.15;0.60;;;;;;;15.98;45.20;101656.81;4940336;28;20487;-56
2023/10/15 05:40:03;;;;;;;4.20;0.90;;;;;;;15.99;45.79;101659.38;4957060;28;20043;-56
2023/10/15 05:42:29;;;;;;;1.33;0.50;;;;;;;16.00;45.74;101662.91;4939962;29;20090;-57
2023/10/15 05:44:55;;;;;;;1.00;0.38;;;;;;;15.97;46.07;101666.75;4939033;29;20036;-56
2023/10/15 05:47:21;;;;;;;5.03;0.70;;;;;;;16.02;46.18;101675.31;4957383;29;20122;-57
2023/10/15 05:49:46;;;;;;;2.72;0.70;;;;;;;16.04;45.50;101670.59;4939917;29;20491;-56
2023/10/15 05:52:12;;;;;;;4.95;0.57;;;;;;;16.07;46.03;101674.88;4939862;29;20104;-56
2023/10/15 05:54:38;;;;;;;3.35;0.55;;;;;;;16.09;46.32;101675.56;4956883;29;20062;-59
2023/10/15 05:57:06;;;;;;;4.38;0.85;;;;;;;16.06;46.10;101670.44;4955936;29;20054;-56
2023/10/15 05:59:32;;;;;;;3.40;0.60;;;;;;;16.03;46.71;101666.19;4939848;29;20047;-57
2023/10/15 06:01:58;;;;;;;1.42;0.73;;;;;;;16.01;46.61;101662.78;4923537;29;20122;-56
2023/10/15 06:04:24;;;;;;;1.60;0.55;;;;;;;16.02;47.13;101669.91;4939442;29;20110;-57
2023/10/15 06:06:50;;;;;;;2.38;0.40;;;;;;;16.03;45.80;101670.75;4939453;29;20387;-57
2023/10/15 06:09:16;;;;;;;2.00;0.50;;;;;;;16.02;45.73;101669.06;4923603;29;20032;-57
2023/10/15 06:11:42;;;;;;;0.88;0.63;;;;;;;16.02;45.75;101666.34;4923801;29;20522;-57
2023/10/15 06:14:08;;;;;;;2.47;0.52;;;;;;;16.04;46.68;101680.56;4956409;29;20106;-57
2023/10/15 06:16:34;;;;;;;3.53;0.68;;;;;;;16.04;46.70;101667.91;4939179;29;20031;-56
2023/10/15 06:19:00;;;;;;;1.20;0.75;;;;;;;16.06;47.16;101670.44;4939148;29;20081;-57
2023/10/15 06:21:25;;;;;;;3.65;0.60;;;;;;;16.04;46.51;101677.84;4939254;29;20034;-56
2023/10/15 06:23:51;;;;;;;0.95;0.40;;;;;;;16.04;45.65;101678.72;4939075;29;20050;-56
2023/10/15 06:26:17;;;;;;;4.22;0.90;;;;;;;16.01;45.64;101670.03;4939427;29;20031;-57
2023/10/15 06:28:43;;;;;;;5.50;0.60;;;;;;;16.03;45.74;101676.13;4923062;29;20537;-57
2023/10/15 06:31:09;;;;;;;5.00;0.68;;;;;;;16.01;46.20;101668.19;4922991;28;20063;-56
2023/10/15 06:33:37;;;;;;;1.50;0.75;;;;;;;16.02;46.55;101677.16;4938965;29;20035;-56
2023/10/15 06:36:03;;;;;;;2.92;0.40;;;;;;;16.00;46.33;101684.53;4956052;29;20039;-57
2023/10/15 06:38:29;;;;;;;2.08;0.75;;;;;;;16.01;46.84;101683.53;4956198;28;20027;-56
2023/10/15 06:40:54;;;;;;;4.43;0.68;;;;;;;16.11;46.55;101685.25;4943902;29;20102;-56
2023/10/15 06:43:19;;;;;;;4.07;0.57;;;;;;;16.22;44.99;101687.78;4954390;28;20458;-56
2023/10/15 06:45:45;;;;;;;3.20;0.60;;;;;;;16.31;45.93;101684.22;4954655;28;20039;-57
2023/10/15 06:48:10;;;;;;;2.33;0.50;;;;;;;16.41;45.17;101686.06;4955875;28;20038;-56
2023/10/15 06:50:36;;;;;;;1.17;0.55;;;;;;;16.52;46.26;101699.41;4953465;28;20046;-56
2023/10/15 06:53:01;;;;;;;1.50;0.68;;;;;;;16.61;44.74;101694.00;4954472;28;20047;-56
2023/10/15 06:55:27;;;;;;;3.53;1.15;;;;;;;16.72;46.33;101684.88;4938388;28;20035;-56
2023/10/15 06:57:53;;;;;;;3.88;1.30;;;;;;;16.84;45.52;101689.94;4922631;28;20032;-57
2023/10/15 07:00:22;;;;;;;1.30;1.20;;;;;;;16.93;44.50;101698.16;4954307;29;20410;-56
2023/10/15 07:02:51;;;;;;;5.35;1.00;;;;;;;16.93;45.72;101704.44;4939033;29;20372;-56
2023/10/15 07:05:18;;;;;;;1.50;0.63;;;;;;;16.98;45.77;101703.97;4954494;28;20039;-57
2023/10/15 07:07:45;;;;;;;5.15;0.70;;;;;;;16.97;45.02;101707.69;4954436;29;20042;-57
2023/10/15 07:10:15;;;;;;;0.38;0.30;;;;;;;16.96;45.43;101714.09;4922902;29;20039;-57
2023/10/15 07:12:45;;;;;;;2.22;0.60;;;;;;;16.94;46.21;101727.78;4954202;29;20042;-56
2023/10/15 07:15:13;;;;;;;1.90;0.70;;;;;;;16.90;45.70;101734.50;4938160;29;20039;-57
2023/10/15 07:17:38;;;;;;;1.83;0.60;;;;;;;16.83;45.51;101736.94;4954037;29;20039;-57
2023/10/15 07:20:14;;;;;;;1.80;0.50;;;;;;;16.79;46.01;101751.78;4955362;28;20038;-56
2023/10/15 07:22:49;;;;;;;0.75;0.40;;;;;;;16.76;46.62;101760.19;4938931;29;20411;-56
2023/10/15 07:25:19;;;;;;;3.22;0.73;;;;;;;16.75;46.24;101761.16;4931736;29;20043;-57
2023/10/15 07:27:48;;;;;;;1.65;0.50;;;;;;;16.72;46.01;101772.28;4936845;29;20043;-57
2023/10/15 07:30:15;;;;;;;2.08;0.40;;;;;;;16.69;45.24;101780.72;4935652;29;20043;-57
2023/10/15 07:32:44;;;;;;;2.42;0.77;;;;;;;16.69;46.51;101767.19;4920272;29;20023;-56
2023/10/15 07:35:14;;;;;;;2.20;0.55;;;;;;;16.74;45.45;101764.88;4936056;29;20487;-56
2023/10/15 07:37:40;;;;;;;3.03;0.90;;;;;;;16.76;46.53;101767.44;4936688;29;20040;-58
2023/10/15 07:40:14;;;;;;;4.10;0.70;;;;;;;16.82;45.81;101773.13;4918758;29;20495;-58
2023/10/15 07:42:40;;;;;;;2.47;0.85;;;;;;;16.84;45.19;101765.72;4924899;28;20392;-57
2023/10/15 07:45:05;;;;;;;3.33;0.90;;;;;;;16.87;45.98;101760.00;4955552;29;20038;-57
2023/10/15 07:47:31;;;;;;;2.38;0.80;;;;;;;16.93;45.47;101755.00;4937808;29;20114;-56
2023/10/15 07:49:57;;;;;;;2.85;0.98;;;;;;;16.98;46.12;101760.81;4921947;29;20031;-56
2023/10/15 07:52:24;;;;;;;3.22;0.98;;;;;;;17.03;45.41;101758.53;4938039;29;20039;-56
2023/10/15 07:54:50;;;;;;;4.28;0.73;;;;;;;17.07;46.59;101766.22;4906516;29;20046;-56
2023/10/15 07:57:16;;;;;;;4.65;1.10;;;;;;;17.10;45.87;101765.91;4922133;29;20110;-56
2023/10/15 07:59:41;;;;;;;2.65;0.88;;;;;;;17.15;45.56;101768.16;4954737;29;20031;-57
2023/10/15 08:02:07;;;;;;;2.80;0.68;;;;;;;17.18;45.40;101763.31;4905975;29;20031;-57
2023/10/15 08:04:34;;;;;;;1.63;0.70;;;;;;;17.24;46.09;101767.28;4954843;29;20554;-57
2023/10/15 08:07:00;;;;;;;0.60;0.60;;;;;;;17.33;45.33;101758.25;4937668;29;20412;-56
2023/10/15 08:09:26;;;;;;;6.57;0.90;;;;;;;17.42;44.92;101768.16;4954828;29;20392;-57
2023/10/15 08:11:51;;;;;;;1.42;0.40;;;;;;;17.45;45.89;101762.47;4943743;28;20086;-57
2023/10/15 08:14:17;;;;;;;3.58;1.08;;;;;;;17.55;45.50;101774.16;4940529;28;20058;-57
2023/10/15 08:16:42;;;;;;;4.57;0.43;;;;;;;17.65;45.81;101774.94;4956667;28;20451;-56
2023/10/15 08:19:08;;;;;;;1.23;0.63;;;;;;;17.71;46.10;101781.59;4973853;28;20118;-57
2023/10/15 08:21:33;;;;;;;2.47;0.80;;;;;;;17.75;45.62;101789.28;4956640;28;20043;-57
2023/10/15 08:23:58;;;;;;;4.03;0.55;;;;;;;17.80;45.16;101800.53;4956482;28;20090;-56
2023/10/15 08:26:24;;;;;;;2.70;0.80;;;;;;;17.81;45.33;101799.50;4973708;28;20522;-57
2023/10/15 08:28:49;;;;;;;3.63;0.95;;;;;;;17.85;45.36;101806.34;4956585;28;20054;-56
2023/10/15 08:31:14;;;;;;;3.95;0.50;;;;;;;17.86;45.81;101797.22;4956360;28;20026;-57
2023/10/15 08:33:40;;;;;;;6.95;1.00;;;;;;;17.99;45.23;101807.66;4956560;28;20078;-56
2023/10/15 08:36:07;;;;;;;3.13;1.20;;;;;;;18.12;45.05;101807.31;4973764;28;20035;-56
2023/10/15 08:38:32;;;;;;;3.13;0.68;;;;;;;18.19;45.16;101820.09;4956472;28;20042;-57
2023/10/15 08:40:59;;;;;;;3.10;0.68;;;;;;;18.19;44.63;101824.66;4940490;28;20047;-57
2023/10/15 08:43:27;;;;;;;1.85;0.47;;;;;;;18.15;44.46;101817.81;4956185;28;20402;-56
2023/10/15 08:45:53;;;;;;;5.07;0.93;;;;;;;18.23;45.02;101831.50;4956470;28;20042;-56
2023/10/15 08:48:18;;;;;;;1.83;0.47;;;;;;;18.26;45.15;101821.16;4956289;28;20031;-56
2023/10/15 08:50:45;;;;;;;2.70;0.47;;;;;;;18.27;45.03;101827.44;4924561;28;20031;-56
2023/10/15 08:53:13;;;;;;;3.42;0.57;;;;;;;18.21;44.94;101822.63;4956207;28;20126;-57
2023/10/15 08:55:41;;;;;;;2.45;0.63;;;;;;;18.21;45.15;101833.47;4958977;28;20066;-57
2023/10/15 08:58:09;;;;;;;1.52;1.20;;;;;;;18.23;45.17;101842.34;4960166;28;20513;-56
2023/10/15 09:00:36;;;;;;;2.28;0.57;;;;;;;18.23;44.92;101836.91;4960442;28;20126;-57
2023/10/15 09:03:02;;;;;;;1.88;0.98;;;;;;;18.23;44.01;101848.59;4959888;28;20042;-57
2023/10/15 09:05:33;;;;;;;1.33;0.50;;;;;;;18.17;44.74;101851.09;4943792;28;20118;-57
2023/10/15 09:08:06;;;;;;;4.15;0.40;;;;;;;18.08;44.95;101850.16;4959719;28;20038;-57
2023/10/15 09:10:32;;;;;;;4.05;0.65;;;;;;;18.09;45.17;101861.84;4944204;28;20074;-57
2023/10/15 09:12:59;;;;;;;2.75;0.77;;;;;;;18.07;45.36;101861.13;4959477;28;20046;-57
2023/10/15 09:15:28;;;;;;;3.38;0.73;;;;;;;18.01;44.79;101865.31;4957684;28;20027;-56
2023/10/15 09:17:58;;;;;;;2.50;0.50;;;;;;;17.98;44.78;101877.31;4941035;29;20024;-56
2023/10/15 09:20:27;;;;;;;1.75;0.47;;;;;;;17.93;44.61;101882.34;4968114;28;20529;-56
2023/10/15 09:23:00;;;;;;;5.32;0.50;;;;;;;17.83;45.05;101878.84;4943832;28;20042;-57
2023/10/15 09:25:26;;;;;;;0.85;0.50;;;;;;;17.77;45.40;101889.41;4971406;28;20063;-57
2023/10/15 09:27:56;;;;;;;3.08;0.70;;;;;;;17.73;44.54;101888.84;4976691;28;20042;-56
2023/10/15 09:30:24;;;;;;;3.20;0.70;;;;;;;17.67;44.83;101884.03;4959630;28;20085;-57
2023/10/15 09:32:50;;;;;;;3.00;0.50;;;;;;;17.65;45.25;101899.59;4959529;28;20039;-57
2023/10/15 09:35:16;;;;;;;1.52;0.77;;;;;;;17.65;45.56;101891.44;4976671;28;20034;-56
2023/10/15 09:37:41;;;;;;;3.92;1.13;;;;;;;17.66;44.70;101905.88;4958932;28;20557;-56
2023/10/15 09:40:18;;;;;;;1.05;0.43;;;;;;;17.65;45.34;101906.84;4959457;28;20517;-56
2023/10/15 09:42:45;;;;;;;0.75;0.40;;;;;;;17.59;45.33;101902.06;4960839;28;20059;-57
2023/10/15 09:45:15;;;;;;;3.85;0.68;;;;;;;17.53;45.18;101918.88;4976406;28;20106;-57
2023/10/15 09:47:48;;;;;;;2.00;0.60;;;;;;;17.49;45.55;101915.59;4943644;28;20038;-56
2023/10/15 09:50:17;;;;;;;1.45;1.10;;;;;;;17.41;45.39;101927.16;4960355;28;20027;-56
2023/10/15 09:52:44;;;;;;;0.13;0.10;;;;;;;17.32;45.38;101938.00;4943699;28;20034;-57
2023/10/15 09:55:11;;;;;;;1.20;0.38;;;;;;;17.24;45.44;101946.00;4958869;28;20035;-57
2023/10/15 09:57:41;;;;;;;1.73;0.43;;;;;;;17.16;44.99;101943.16;4942755;28;20035;-57
2023/10/15 10:00:14;;;;;;;1.48;0.20;;;;;;;17.12;45.48;101947.16;4958741;28;20031;-57
2023/10/15 10:02:45;;;;;;;1.23;0.43;;;;;;;17.10;45.82;101946.44;4943775;28;20031;-56
2023/10/15 10:05:49;;;;;;;3.15;0.55;;;;;;;17.08;45.98;101946.59;4958816;28;20039;-57
2023/10/15 10:08:26;;;;;;;3.33;0.43;;;;;;;17.17;45.31;101956.56;4975909;28;20037;-57
2023/10/15 10:11:03;;;;;;;1.00;0.50;;;;;;;17.30;46.21;101951.72;4975647;28;20051;-58
2023/10/15 10:13:56;;;;;;;1.67;0.28;;;;;;;17.56;45.47;101957.38;4942886;28;20448;-57
2023/10/15 10:16:27;;;;;;;4.63;0.50;;;;;;;17.98;44.70;101958.66;4942703;28;20056;-57
2023/10/15 10:18:53;;;;;;;2.35;0.50;;;;;;;18.01;44.65;101954.78;4958681;28;20081;-57
2023/10/15 12:01:44;;;;;;;1.83;0.90;;;;;;;24.62;37.95;101970.13;3572832;23;20327;-60
2023/10/15 12:04:11;;;;;;;0.90;0.20;;;;;;;24.66;37.81;101970.59;4952233;29;20506;-58
2023/10/15 12:06:38;;;;;;;1.48;0.40;;;;;;;24.25;37.99;101976.66;4937189;29;20040;-57
2023/10/15 12:09:06;;;;;;;1.35;0.28;;;;;;;23.95;38.26;101979.56;4921564;29;20047;-60
2023/10/15 12:11:31;;;;;;;1.20;0.40;;;;;;;23.64;37.94;101977.84;4922319;29;20058;-59
2023/10/15 12:13:57;;;;;;;0.93;0.22;;;;;;;23.36;38.74;101982.16;4921514;29;20426;-59
2023/10/15 12:16:22;;;;;;;0.60;0.25;;;;;;;23.08;37.83;101981.03;4921392;29;20114;-59
2023/10/15 12:18:48;;;;;;;0.85;0.20;;;;;;;22.83;38.04;101979.50;4936901;29;20146;-59
2023/10/15 12:21:16;;;;;;;2.40;0.28;;;;;;;22.57;37.95;101977.06;4921580;29;20056;-59
2023/10/15 12:23:43;;;;;;;1.13;0.20;;;;;;;22.40;38.35;101981.75;4937464;29;20462;-57
2023/10/15 12:26:08;;;;;;;1.35;0.40;;;;;;;22.62;38.11;101986.44;4922272;29;20035;-59
2023/10/15 12:28:43;;;;;;;0.50;0.25;;;;;;;22.88;36.80;101993.47;4936885;29;20396;-59
2023/10/15 12:31:09;;;;;;;0.70;0.22;;;;;;;23.11;37.57;101986.13;4925994;29;20027;-59
2023/10/15 12:33:34;;;;;;;0.40;0.40;;;;;;;22.89;37.39;101987.81;4941073;29;20046;-59
2023/10/15 12:35:59;;;;;;;0.63;0.20;;;;;;;22.67;37.42;101987.81;4958354;29;20406;-59
2023/10/15 12:38:31;;;;;;;3.53;0.30;;;;;;;22.70;36.93;101984.72;4941133;29;20509;-57
2023/10/15 12:40:59;;;;;;;1.77;0.38;;;;;;;23.25;36.28;101988.06;4941031;29;20028;-57
2023/10/15 12:43:24;;;;;;;0.70;0.22;;;;;;;23.63;35.90;101980.75;4940811;29;20126;-58
2023/10/15 12:45:53;;;;;;;1.80;0.43;;;;;;;23.97;36.53;101961.03;4958152;29;20033;-58
2023/10/15 12:48:20;;;;;;;0.93;0.30;;;;;;;24.28;35.83;101964.47;4958251;29;20035;-57
2023/10/15 12:50:48;;;;;;;0.50;0.38;;;;;;;24.54;35.59;101970.25;4925438;29;20028;-58
2023/10/15 12:53:15;;;;;;;2.08;0.65;;;;;;;24.77;35.66;101970.09;4940884;29;20408;-58
2023/10/15 12:55:42;;;;;;;3.30;1.08;;;;;;;24.97;35.25;101968.44;4958580;29;20055;-60
2023/10/15 12:58:09;;;;;;;1.48;0.55;;;;;;;25.15;35.29;101968.84;4958305;29;20402;-59
2023/10/15 13:00:39;;;;;;;3.80;0.55;;;;;;;25.31;35.18;101970.47;4941219;29;20035;-58
2023/10/15 13:03:05;;;;;;;0.43;0.30;;;;;;;25.44;34.61;101970.56;4945919;29;20126;-58
2023/10/15 13:05:30;;;;;;;1.55;0.45;;;;;;;25.56;35.09;101981.88;4925110;29;20522;-58
2023/10/15 13:07:56;;;;;;;0.73;0.38;;;;;;;25.65;34.52;101975.19;4940508;29;20040;-58
2023/10/15 13:10:21;;;;;;;0.55;0.30;;;;;;;25.71;34.17;101975.22;4941251;29;20090;-57
2023/10/15 13:12:48;;;;;;;2.80;0.63;;;;;;;25.79;34.21;101975.09;4925689;29;20059;-58
2023/10/15 13:15:13;;;;;;;2.05;0.50;;;;;;;25.84;34.07;101969.84;4941325;29;20035;-58
2023/10/15 13:17:39;;;;;;;2.50;0.30;;;;;;;25.85;34.10;101967.97;4958229;29;20038;-58
2023/10/15 13:20:11;;;;;;;1.00;0.40;;;;;;;25.87;33.94;101969.44;4909730;29;20494;-58
2023/10/15 13:22:38;;;;;;;0.30;0.30;;;;;;;25.87;34.11;101972.19;4957752;29;20032;-58
2023/10/15 13:25:04;;;;;;;0.65;0.20;;;;;;;25.83;33.46;101967.28;4940346;29;20053;-58
2023/10/15 13:27:30;;;;;;;1.35;0.28;;;;;;;25.78;33.77;101965.16;4957410;29;20043;-59